Time;durP1;ratioP1;P1;durP2;ratioP2;P2;SDS_P1;SDS_P2;PMS_P1;PMS_P2;Temp;Humidity;BMP_temperature;BMP_pressure;BME280_temperature;BME280_humidity;BME280_pressure;Samples;Min_cycle;Max_cycle;Signal;HPM_P1;HPM_P2
2021/09/11 00:00:37;;;;;;;3.97;3.57;;;;;;;;;;5035778;28;20384;-79
2021/09/11 00:03:03;;;;;;;4.30;3.83;;;;;;;;;;5017498;28;20443;-80
2021/09/11 00:05:29;;;;;;;4.43;3.57;;;;;;;;;;5035382;28;20861;-78
2021/09/11 00:07:55;;;;;;;6.47;3.70;;;;;;;;;;5035464;28;20414;-81
2021/09/11 00:10:21;;;;;;;4.90;4.50;;;;;;;;;;5035498;28;20387;-80
2021/09/11 00:12:47;;;;;;;8.90;3.57;;;;;;;;;;5035014;28;20851;-81
2021/09/11 00:15:17;;;;;;;7.30;4.20;;;;;;;;;;5035324;28;20400;-78
2021/09/11 00:17:43;;;;;;;5.20;4.60;;;;;;;;;;5035467;28;20493;-80
2021/09/11 00:20:09;;;;;;;4.03;3.60;;;;;;;;;;5017558;28;20439;-80
2021/09/11 00:22:35;;;;;;;3.73;3.43;;;;;;;;;;5035030;28;20465;-78
2021/09/11 00:25:01;;;;;;;4.57;4.17;;;;;;;;;;5017813;28;20411;-78
2021/09/11 00:27:27;;;;;;;6.07;4.07;;;;;;;;;;5017073;28;20448;-78
2021/09/11 00:29:53;;;;;;;4.77;3.80;;;;;;;;;;5034946;28;20421;-81
2021/09/11 00:32:19;;;;;;;5.30;4.13;;;;;;;;;;5034589;28;20441;-81
2021/09/11 00:34:45;;;;;;;4.40;4.10;;;;;;;;;;5034965;28;20409;-80
2021/09/11 00:37:11;;;;;;;6.97;4.17;;;;;;;;;;5034935;28;20399;-79
2021/09/11 00:39:37;;;;;;;4.80;4.40;;;;;;;;;;5034645;28;20486;-79
2021/09/11 00:42:03;;;;;;;5.60;4.10;;;;;;;;;;5016504;28;20441;-81
2021/09/11 00:44:30;;;;;;;4.93;4.53;;;;;;;;;;5034655;28;20961;-78
2021/09/11 00:46:56;;;;;;;5.83;4.57;;;;;;;;;;5017090;28;20416;-80
2021/09/11 00:49:22;;;;;;;5.10;4.60;;;;;;;;;;5034581;28;20429;-79
2021/09/11 00:51:49;;;;;;;4.47;4.07;;;;;;;;;;5016767;28;20821;-82
2021/09/11 00:54:15;;;;;;;5.37;4.87;;;;;;;;;;5034532;28;20838;-78
2021/09/11 00:56:41;;;;;;;7.27;4.83;;;;;;;;;;5034709;28;20462;-78
2021/09/11 00:59:07;;;;;;;7.33;4.57;;;;;;;;;;5016817;28;20427;-79
2021/09/11 01:01:33;;;;;;;4.90;4.43;;;;;;;;;;5034256;28;20815;-81
2021/09/11 01:03:59;;;;;;;5.13;4.60;;;;;;;;;;5034737;28;20564;-79
2021/09/11 01:06:25;;;;;;;5.90;5.20;;;;;;;;;;5016950;28;20413;-81
2021/09/11 01:08:54;;;;;;;6.53;4.77;;;;;;;;;;5034922;28;20409;-80
2021/09/11 01:11:20;;;;;;;5.23;4.73;;;;;;;;;;5020883;28;20454;-81
2021/09/11 01:13:46;;;;;;;6.47;4.50;;;;;;;;;;5016606;28;20431;-82
2021/09/11 01:16:12;;;;;;;4.73;4.17;;;;;;;;;;5034424;28;20421;-79
2021/09/11 01:18:38;;;;;;;4.63;3.97;;;;;;;;;;5016560;28;20439;-79
2021/09/11 01:21:04;;;;;;;5.20;4.70;;;;;;;;;;5033938;28;20432;-80
2021/09/11 01:23:31;;;;;;;5.30;4.80;;;;;;;;;;5034086;28;20562;-80
2021/09/11 01:25:57;;;;;;;5.00;4.50;;;;;;;;;;5033916;28;20412;-81
2021/09/11 01:28:27;;;;;;;5.57;5.03;;;;;;;;;;5016080;28;20898;-79
2021/09/11 01:30:53;;;;;;;6.57;5.50;;;;;;;;;;5033471;28;20917;-78
2021/09/11 01:33:19;;;;;;;5.67;4.93;;;;;;;;;;5033712;28;20409;-80
2021/09/11 01:35:45;;;;;;;5.63;4.77;;;;;;;;;;5033877;28;20383;-82
2021/09/11 01:38:11;;;;;;;7.03;5.90;;;;;;;;;;4999726;28;20455;-79
2021/09/11 01:40:37;;;;;;;5.37;4.97;;;;;;;;;;5016450;28;20408;-81
2021/09/11 01:43:03;;;;;;;5.40;4.90;;;;;;;;;;5033308;28;20435;-80
2021/09/11 01:45:29;;;;;;;6.10;4.50;;;;;;;;;;5033750;28;20416;-80
2021/09/11 01:47:55;;;;;;;14.10;5.47;;;;;;;;;;5033445;28;20391;-78
2021/09/11 01:50:22;;;;;;;10.80;7.00;;;;;;;;;;5033467;28;20409;-79
2021/09/11 01:52:49;;;;;;;9.37;7.97;;;;;;;;;;5033198;28;20424;-80
2021/09/11 01:55:15;;;;;;;10.70;7.47;;;;;;;;;;5016149;28;20414;-81
2021/09/11 01:57:46;;;;;;;7.53;6.83;;;;;;;;;;5033678;28;20383;-79
2021/09/11 02:00:13;;;;;;;9.73;8.70;;;;;;;;;;5033640;28;20413;-78
2021/09/11 02:02:39;;;;;;;10.60;9.50;;;;;;;;;;5032958;28;20423;-80
2021/09/11 02:05:06;;;;;;;16.23;8.70;;;;;;;;;;5033416;28;20731;-80
2021/09/11 02:07:32;;;;;;;10.90;9.67;;;;;;;;;;5033283;28;20384;-80
2021/09/11 02:09:58;;;;;;;17.80;11.30;;;;;;;;;;5033386;28;20893;-80
2021/09/11 02:12:24;;;;;;;11.83;10.63;;;;;;;;;;5032860;28;20403;-80
2021/09/11 02:14:51;;;;;;;12.93;10.30;;;;;;;;;;5033513;28;20384;-81
2021/09/11 02:17:16;;;;;;;12.20;11.00;;;;;;;;;;5033312;28;20810;-79
2021/09/11 02:19:43;;;;;;;12.87;10.00;;;;;;;;;;5033204;28;20453;-81
2021/09/11 02:22:10;;;;;;;14.53;11.30;;;;;;;;;;5033157;28;20483;-79
2021/09/11 02:24:37;;;;;;;15.20;11.33;;;;;;;;;;5015513;28;20529;-80
2021/09/11 02:27:03;;;;;;;12.67;11.37;;;;;;;;;;5015781;28;20787;-80
2021/09/11 02:29:29;;;;;;;18.13;11.50;;;;;;;;;;5033395;28;20405;-79
2021/09/11 02:31:55;;;;;;;10.97;9.87;;;;;;;;;;5015369;28;20540;-79
2021/09/11 02:34:21;;;;;;;15.70;11.00;;;;;;;;;;5033326;28;20499;-79
2021/09/11 02:36:47;;;;;;;18.87;11.43;;;;;;;;;;5033077;28;20409;-79
2021/09/11 02:39:13;;;;;;;14.30;11.70;;;;;;;;;;5033115;28;20391;-80
2021/09/11 02:41:39;;;;;;;25.53;14.53;;;;;;;;;;5014827;28;20433;-79
2021/09/11 02:44:05;;;;;;;15.57;12.97;;;;;;;;;;5034526;28;20559;-78
2021/09/11 02:46:32;;;;;;;18.60;13.80;;;;;;;;;;5036917;28;20410;-81
2021/09/11 02:49:01;;;;;;;16.70;13.20;;;;;;;;;;5036933;28;20896;-81
2021/09/11 02:51:27;;;;;;;17.43;13.50;;;;;;;;;;5036489;28;20773;-79
2021/09/11 02:53:53;;;;;;;16.57;13.87;;;;;;;;;;5036900;28;20422;-80
2021/09/11 02:56:19;;;;;;;21.90;15.27;;;;;;;;;;5037053;28;20383;-80
2021/09/11 02:58:45;;;;;;;19.70;14.30;;;;;;;;;;5036898;28;20826;-80
2021/09/11 03:01:12;;;;;;;17.43;13.10;;;;;;;;;;5018638;28;20457;-80
2021/09/11 03:03:38;;;;;;;16.47;12.40;;;;;;;;;;5036821;28;20560;-79
2021/09/11 03:06:04;;;;;;;15.93;14.07;;;;;;;;;;5036718;28;20423;-83
2021/09/11 03:08:30;;;;;;;15.93;13.90;;;;;;;;;;5036796;28;20837;-80
2021/09/11 03:10:57;;;;;;;25.70;16.67;;;;;;;;;;5036484;28;20409;-79
2021/09/11 03:13:23;;;;;;;22.50;15.50;;;;;;;;;;5019055;28;20434;-81
2021/09/11 03:15:49;;;;;;;19.60;13.87;;;;;;;;;;5036607;28;20421;-78
2021/09/11 03:18:15;;;;;;;21.00;14.80;;;;;;;;;;5018772;28;20467;-78
2021/09/11 03:20:46;;;;;;;23.67;15.43;;;;;;;;;;5036239;28;20499;-81
2021/09/11 03:23:13;;;;;;;25.20;14.50;;;;;;;;;;5036468;28;20452;-80
2021/09/11 03:25:39;;;;;;;18.90;13.60;;;;;;;;;;5018959;28;20387;-79
2021/09/11 03:28:05;;;;;;;18.00;13.23;;;;;;;;;;5018663;28;20755;-80
2021/09/11 03:30:31;;;;;;;20.87;13.37;;;;;;;;;;5037871;28;20826;-80
2021/09/11 03:32:57;;;;;;;20.67;13.00;;;;;;;;;;5035724;28;20463;-79
2021/09/11 03:35:23;;;;;;;18.93;12.57;;;;;;;;;;5036232;28;20416;-82
2021/09/11 03:37:50;;;;;;;17.80;11.90;;;;;;;;;;5036142;28;20413;-82
2021/09/11 03:40:16;;;;;;;22.70;11.47;;;;;;;;;;5036007;28;20403;-78
2021/09/11 03:42:42;;;;;;;17.10;10.73;;;;;;;;;;5035440;28;20986;-80
2021/09/11 03:45:09;;;;;;;17.67;10.73;;;;;;;;;;5035834;28;20406;-82
2021/09/11 03:47:35;;;;;;;14.00;9.43;;;;;;;;;;5035956;28;20436;-82
2021/09/11 03:50:01;;;;;;;21.20;10.13;;;;;;;;;;5017754;28;20426;-79
2021/09/11 03:52:27;;;;;;;14.07;8.97;;;;;;;;;;5035539;28;20999;-80
2021/09/11 03:54:53;;;;;;;17.27;9.60;;;;;;;;;;5017321;28;20444;-81
2021/09/11 03:57:19;;;;;;;15.77;9.77;;;;;;;;;;5035742;28;20420;-78
2021/09/11 03:59:45;;;;;;;15.83;8.47;;;;;;;;;;5018040;28;20424;-81
2021/09/11 04:02:11;;;;;;;15.73;8.97;;;;;;;;;;5035546;28;20429;-79
2021/09/11 04:04:37;;;;;;;19.10;9.53;;;;;;;;;;5035810;28;20464;-80
2021/09/11 04:07:03;;;;;;;14.10;8.37;;;;;;;;;;5035733;28;20413;-81
2021/09/11 04:09:29;;;;;;;13.47;8.60;;;;;;;;;;5018193;28;20413;-81
2021/09/11 04:11:55;;;;;;;12.93;8.77;;;;;;;;;;5017764;28;20433;-80
2021/09/11 04:14:21;;;;;;;15.97;9.63;;;;;;;;;;5035642;28;20495;-81
2021/09/11 04:16:47;;;;;;;12.10;8.53;;;;;;;;;;5035766;28;20428;-79
2021/09/11 04:19:13;;;;;;;13.00;9.80;;;;;;;;;;5017705;28;20408;-81
2021/09/11 04:21:39;;;;;;;13.23;9.80;;;;;;;;;;5034987;28;20913;-78
2021/09/11 04:24:06;;;;;;;14.77;9.90;;;;;;;;;;5035284;28;20461;-78
2021/09/11 04:26:32;;;;;;;14.30;9.57;;;;;;;;;;5035515;28;20448;-79
2021/09/11 04:28:58;;;;;;;14.40;9.20;;;;;;;;;;5035347;28;20870;-79
2021/09/11 04:31:24;;;;;;;13.43;9.40;;;;;;;;;;5034623;28;20483;-79
2021/09/11 04:33:50;;;;;;;13.43;8.20;;;;;;;;;;5038379;28;20466;-81
2021/09/11 04:36:16;;;;;;;16.23;8.43;;;;;;;;;;5035140;28;20832;-79
2021/09/11 04:38:42;;;;;;;8.17;7.40;;;;;;;;;;5035291;28;20928;-80
2021/09/11 04:41:09;;;;;;;9.03;7.87;;;;;;;;;;5034664;28;20437;-79
2021/09/11 04:43:35;;;;;;;10.10;8.20;;;;;;;;;;5034590;28;20465;-79
2021/09/11 04:46:01;;;;;;;8.57;6.40;;;;;;;;;;5034966;28;20497;-82
2021/09/11 04:48:27;;;;;;;9.17;6.90;;;;;;;;;;5034612;28;20429;-79
2021/09/11 04:50:54;;;;;;;10.63;6.63;;;;;;;;;;5034291;28;20504;-80
2021/09/11 04:53:20;;;;;;;12.53;6.60;;;;;;;;;;5034574;28;20447;-77
2021/09/11 04:55:46;;;;;;;7.00;6.30;;;;;;;;;;5034358;28;20400;-79
2021/09/11 04:58:11;;;;;;;9.57;6.70;;;;;;;;;;5034484;28;20413;-79
2021/09/11 05:00:38;;;;;;;8.70;6.73;;;;;;;;;;5034537;28;20443;-80
2021/09/11 05:03:03;;;;;;;11.83;6.90;;;;;;;;;;5034328;28;20464;-80
2021/09/11 05:05:29;;;;;;;6.83;6.13;;;;;;;;;;5016392;28;20395;-78
2021/09/11 05:07:56;;;;;;;8.10;6.67;;;;;;;;;;5016270;28;20384;-79
2021/09/11 05:10:22;;;;;;;10.93;6.53;;;;;;;;;;5034447;28;20435;-79
2021/09/11 05:12:48;;;;;;;7.63;6.23;;;;;;;;;;5033972;28;20831;-79
2021/09/11 05:15:14;;;;;;;8.13;6.27;;;;;;;;;;5034743;28;20476;-79
2021/09/11 05:17:40;;;;;;;11.03;5.93;;;;;;;;;;5016963;28;20478;-81
2021/09/11 05:20:06;;;;;;;9.47;6.80;;;;;;;;;;5016792;28;20535;-80
2021/09/11 05:22:32;;;;;;;11.90;6.60;;;;;;;;;;5033862;28;20441;-79
2021/09/11 05:24:58;;;;;;;12.30;7.43;;;;;;;;;;5034363;28;20439;-77
2021/09/11 05:27:24;;;;;;;8.73;6.50;;;;;;;;;;5034249;28;20845;-80
2021/09/11 05:29:50;;;;;;;8.07;6.20;;;;;;;;;;5016560;28;20417;-80
2021/09/11 05:32:16;;;;;;;10.07;6.67;;;;;;;;;;5033608;28;20804;-80
2021/09/11 05:34:42;;;;;;;6.80;5.07;;;;;;;;;;5016461;28;20445;-77
2021/09/11 05:37:08;;;;;;;12.87;6.77;;;;;;;;;;5033975;28;20392;-80
2021/09/11 05:39:34;;;;;;;9.80;5.73;;;;;;;;;;5033721;28;20711;-80
2021/09/11 05:42:00;;;;;;;10.70;5.20;;;;;;;;;;5033443;28;20449;-79
2021/09/11 05:44:26;;;;;;;6.37;4.90;;;;;;;;;;5015991;28;20813;-80
2021/09/11 05:46:53;;;;;;;7.20;4.27;;;;;;;;;;5033745;28;20409;-78
2021/09/11 05:49:19;;;;;;;10.50;5.50;;;;;;;;;;5016222;28;20437;-80
2021/09/11 05:51:45;;;;;;;8.60;5.27;;;;;;;;;;5033198;28;20930;-80
2021/09/11 05:54:11;;;;;;;7.70;4.70;;;;;;;;;;5015996;28;20420;-78
2021/09/11 05:56:37;;;;;;;8.93;4.80;;;;;;;;;;5033604;28;20417;-81
2021/09/11 05:59:03;;;;;;;7.20;4.27;;;;;;;;;;5033510;28;20531;-80
2021/09/11 06:01:29;;;;;;;6.33;3.60;;;;;;;;;;5033122;28;20440;-80
2021/09/11 06:03:55;;;;;;;5.43;3.07;;;;;;;;;;5017188;28;20507;-82
2021/09/11 06:06:21;;;;;;;4.40;3.60;;;;;;;;;;5033300;28;20380;-80
2021/09/11 06:08:48;;;;;;;5.67;3.67;;;;;;;;;;5015852;28;20486;-79
2021/09/11 06:11:14;;;;;;;6.10;3.50;;;;;;;;;;5033044;28;20470;-80
2021/09/11 06:13:40;;;;;;;11.20;4.40;;;;;;;;;;5033558;28;20388;-80
2021/09/11 06:16:08;;;;;;;6.97;4.50;;;;;;;;;;5033371;28;20924;-78
2021/09/11 06:18:34;;;;;;;5.13;3.33;;;;;;;;;;5015336;28;20443;-80
2021/09/11 06:21:00;;;;;;;7.87;3.10;;;;;;;;;;5015328;28;20396;-77
2021/09/11 06:23:27;;;;;;;6.40;3.23;;;;;;;;;;5033360;28;20465;-81
2021/09/11 06:25:53;;;;;;;11.87;3.30;;;;;;;;;;5033252;28;20919;-80
2021/09/11 06:28:21;;;;;;;5.57;3.27;;;;;;;;;;5032913;28;20413;-79
2021/09/11 06:30:47;;;;;;;8.83;4.33;;;;;;;;;;5015309;28;20398;-79
2021/09/11 06:33:13;;;;;;;9.03;4.07;;;;;;;;;;5033278;28;20394;-80
2021/09/11 06:35:39;;;;;;;6.23;3.60;;;;;;;;;;5033136;28;20886;-81
2021/09/11 06:38:05;;;;;;;5.70;3.43;;;;;;;;;;5033147;28;20413;-79
2021/09/11 06:40:31;;;;;;;5.47;3.10;;;;;;;;;;5016082;28;20420;-80
2021/09/11 06:42:57;;;;;;;9.53;3.60;;;;;;;;;;5032341;28;20470;-81
2021/09/11 06:45:23;;;;;;;6.60;3.03;;;;;;;;;;5032881;28;20394;-80
2021/09/11 06:47:49;;;;;;;6.10;3.80;;;;;;;;;;5033118;28;20452;-79
2021/09/11 06:50:15;;;;;;;6.80;3.80;;;;;;;;;;5015098;28;20773;-78
2021/09/11 06:52:41;;;;;;;5.07;4.00;;;;;;;;;;5015001;28;20453;-80
2021/09/11 06:55:08;;;;;;;6.77;3.80;;;;;;;;;;5032812;28;20380;-79
2021/09/11 06:57:34;;;;;;;8.83;3.93;;;;;;;;;;5032843;28;20396;-80
2021/09/11 07:00:00;;;;;;;7.57;4.00;;;;;;;;;;5015159;28;20797;-78
2021/09/11 07:02:26;;;;;;;5.00;3.80;;;;;;;;;;5014477;28;20436;-77
2021/09/11 07:04:52;;;;;;;6.00;3.50;;;;;;;;;;5032603;28;20496;-79
2021/09/11 07:07:18;;;;;;;5.37;3.77;;;;;;;;;;5032901;28;20404;-78
2021/09/11 07:09:44;;;;;;;4.13;3.23;;;;;;;;;;5032871;28;20379;-80
2021/09/11 07:12:10;;;;;;;5.47;4.40;;;;;;;;;;5014908;28;20506;-81
2021/09/11 07:14:36;;;;;;;7.43;4.70;;;;;;;;;;5015023;28;20428;-79
2021/09/11 07:17:02;;;;;;;5.90;4.40;;;;;;;;;;5032639;28;20906;-80
2021/09/11 07:19:28;;;;;;;8.23;4.10;;;;;;;;;;5032697;28;20395;-81
2021/09/11 07:21:56;;;;;;;5.13;3.20;;;;;;;;;;5014531;28;20407;-80
2021/09/11 07:24:22;;;;;;;7.20;5.00;;;;;;;;;;5015164;28;20439;-80
2021/09/11 07:26:48;;;;;;;8.73;5.10;;;;;;;;;;5014970;28;20395;-79
2021/09/11 07:29:14;;;;;;;7.50;4.20;;;;;;;;;;5032926;28;20409;-78
2021/09/11 07:31:40;;;;;;;5.93;5.30;;;;;;;;;;5018280;28;20851;-80
2021/09/11 07:34:07;;;;;;;8.17;4.83;;;;;;;;;;5036321;28;20387;-80
2021/09/11 07:36:33;;;;;;;7.00;5.77;;;;;;;;;;5036250;28;20395;-80
2021/09/11 07:38:59;;;;;;;9.63;5.80;;;;;;;;;;5036409;28;20416;-81
2021/09/11 07:41:25;;;;;;;9.50;4.73;;;;;;;;;;5035769;28;20440;-81
2021/09/11 07:43:51;;;;;;;7.33;4.73;;;;;;;;;;5035970;28;20518;-82
2021/09/11 07:46:17;;;;;;;7.97;4.20;;;;;;;;;;5036103;28;20551;-81
2021/09/11 07:48:43;;;;;;;6.97;5.27;;;;;;;;;;5035868;28;20407;-78
2021/09/11 07:51:09;;;;;;;6.40;5.00;;;;;;;;;;5035591;28;20440;-81
2021/09/11 07:53:35;;;;;;;8.33;5.30;;;;;;;;;;5036030;28;20388;-80
2021/09/11 07:56:02;;;;;;;5.23;4.67;;;;;;;;;;5037476;28;20421;-79
2021/09/11 07:58:28;;;;;;;7.00;4.23;;;;;;;;;;5038479;28;20391;-78
2021/09/11 08:00:55;;;;;;;6.73;5.07;;;;;;;;;;5035523;28;20392;-80
2021/09/11 08:03:22;;;;;;;9.40;5.27;;;;;;;;;;5017911;28;20501;-79
2021/09/11 08:05:48;;;;;;;6.20;3.90;;;;;;;;;;5035899;28;20417;-79
2021/09/11 08:08:14;;;;;;;6.43;4.97;;;;;;;;;;5018697;28;20384;-80
2021/09/11 08:10:40;;;;;;;8.47;5.07;;;;;;;;;;5035279;28;20983;-79
2021/09/11 08:13:06;;;;;;;6.83;3.80;;;;;;;;;;5035402;28;20468;-80
2021/09/11 08:15:32;;;;;;;8.10;4.27;;;;;;;;;;5017806;28;20392;-79
2021/09/11 08:18:00;;;;;;;7.30;4.90;;;;;;;;;;5035370;28;20421;-79
2021/09/11 08:20:32;;;;;;;7.10;3.67;;;;;;;;;;5001831;28;20812;-80
2021/09/11 08:22:58;;;;;;;7.33;3.23;;;;;;;;;;5018380;28;20439;-78
2021/09/11 08:25:24;;;;;;;8.27;3.87;;;;;;;;;;5035164;28;20411;-77
2021/09/11 08:27:50;;;;;;;6.43;3.30;;;;;;;;;;5017755;28;20431;-77
2021/09/11 08:30:16;;;;;;;9.23;3.40;;;;;;;;;;5035023;28;20539;-78
2021/09/11 08:32:42;;;;;;;4.73;2.87;;;;;;;;;;5034663;28;20418;-78
2021/09/11 08:35:08;;;;;;;3.37;2.60;;;;;;;;;;5035005;28;20760;-77
2021/09/11 08:37:34;;;;;;;7.20;2.73;;;;;;;;;;5035019;28;20425;-78
2021/09/11 08:40:00;;;;;;;4.93;2.60;;;;;;;;;;5017384;28;20400;-79
2021/09/11 08:42:26;;;;;;;4.00;2.50;;;;;;;;;;5033167;28;20422;-77
2021/09/11 08:44:52;;;;;;;7.43;2.47;;;;;;;;;;5034937;28;20514;-77
2021/09/11 08:47:18;;;;;;;7.07;2.40;;;;;;;;;;5016778;28;20452;-77
2021/09/11 08:49:44;;;;;;;7.00;2.10;;;;;;;;;;5034662;28;20920;-77
2021/09/11 08:52:12;;;;;;;5.20;2.87;;;;;;;;;;5034377;28;20475;-78
2021/09/11 08:54:38;;;;;;;3.27;1.90;;;;;;;;;;5034580;28;20790;-76
2021/09/11 08:57:24;;;;;;;2.40;1.73;;;;;;;;;;5034698;28;20413;-77
2021/09/11 08:59:51;;;;;;;4.57;1.60;;;;;;;;;;5016804;28;20409;-77
2021/09/11 09:02:17;;;;;;;1.70;1.43;;;;;;;;;;5034191;28;20428;-76
2021/09/11 09:04:53;;;;;;;3.10;2.03;;;;;;;;;;5034427;28;20467;-77
2021/09/11 09:07:29;;;;;;;4.50;1.93;;;;;;;;;;5034377;28;20411;-77
2021/09/11 09:10:15;;;;;;;3.63;1.67;;;;;;;;;;5034677;28;20401;-77
2021/09/11 09:12:42;;;;;;;2.30;1.40;;;;;;;;;;5033778;28;20417;-77
2021/09/11 09:15:08;;;;;;;2.07;1.47;;;;;;;;;;5034370;28;20496;-77
2021/09/11 09:17:40;;;;;;;3.30;1.80;;;;;;;;;;5034250;28;20405;-77
2021/09/11 09:20:13;;;;;;;2.43;1.70;;;;;;;;;;5034218;28;20405;-76
2021/09/11 09:22:39;;;;;;;4.10;1.67;;;;;;;;;;5033978;28;20863;-76
2021/09/11 09:25:07;;;;;;;1.67;1.40;;;;;;;;;;5034265;28;20461;-78
2021/09/11 09:27:33;;;;;;;2.53;1.33;;;;;;;;;;5034189;28;20432;-77
2021/09/11 09:30:02;;;;;;;6.80;2.00;;;;;;;;;;5034334;28;20398;-77
2021/09/11 09:32:37;;;;;;;3.30;2.00;;;;;;;;;;5015873;28;20434;-77
2021/09/11 09:35:16;;;;;;;4.33;1.93;;;;;;;;;;5034076;28;20818;-77
2021/09/11 09:37:59;;;;;;;2.70;1.50;;;;;;;;;;5033896;28;20413;-79
2021/09/11 09:40:31;;;;;;;3.83;1.43;;;;;;;;;;5033855;28;20404;-76
2021/09/11 09:42:57;;;;;;;2.30;1.30;;;;;;;;;;5033499;28;20436;-77
2021/09/11 09:45:30;;;;;;;2.80;1.60;;;;;;;;;;5033802;28;20791;-77
2021/09/11 09:48:03;;;;;;;3.37;1.77;;;;;;;;;;5033589;28;20401;-77
2021/09/11 09:50:30;;;;;;;7.77;1.67;;;;;;;;;;5033701;28;20774;-78
2021/09/11 09:52:56;;;;;;;3.50;1.70;;;;;;;;;;5033541;28;20785;-77
2021/09/11 09:55:22;;;;;;;2.90;1.30;;;;;;;;;;5033661;28;20411;-79
2021/09/11 09:57:49;;;;;;;2.97;1.87;;;;;;;;;;5033412;28;20387;-77
2021/09/11 10:00:15;;;;;;;2.57;1.50;;;;;;;;;;5033378;28;20386;-79
2021/09/11 10:02:41;;;;;;;3.87;1.80;;;;;;;;;;5033053;28;20399;-77
2021/09/11 10:05:07;;;;;;;2.40;1.57;;;;;;;;;;5033281;28;20464;-78
2021/09/11 10:07:33;;;;;;;2.10;1.60;;;;;;;;;;5033365;28;20388;-78
2021/09/11 10:10:00;;;;;;;2.90;1.67;;;;;;;;;;5033236;28;20413;-77
2021/09/11 10:12:30;;;;;;;8.00;1.67;;;;;;;;;;5032933;28;20950;-79
2021/09/11 10:15:16;;;;;;;4.70;1.80;;;;;;;;;;5033443;28;20420;-76
2021/09/11 10:17:42;;;;;;;4.10;1.90;;;;;;;;;;5033547;28;20417;-78
2021/09/11 10:20:08;;;;;;;2.03;1.80;;;;;;;;;;5015912;28;20421;-80
2021/09/11 10:22:36;;;;;;;2.00;1.60;;;;;;;;;;5032882;28;21056;-78
2021/09/11 10:25:04;;;;;;;3.97;2.00;;;;;;;;;;5033215;28;20966;-78
2021/09/11 10:27:37;;;;;;;2.47;1.53;;;;;;;;;;5033292;28;20416;-77
2021/09/11 10:30:09;;;;;;;4.27;2.10;;;;;;;;;;5033266;28;20405;-79
2021/09/11 10:32:35;;;;;;;3.83;1.73;;;;;;;;;;5032884;28;20421;-78
2021/09/11 10:35:04;;;;;;;3.80;1.40;;;;;;;;;;5033143;28;20417;-78
2021/09/11 10:37:40;;;;;;;4.70;1.80;;;;;;;;;;5033064;28;20405;-79
2021/09/11 10:40:17;;;;;;;3.27;1.70;;;;;;;;;;5033188;28;20416;-77
2021/09/11 10:43:10;;;;;;;2.90;1.60;;;;;;;;;;5032866;28;20951;-78
2021/09/11 10:45:39;;;;;;;1.50;1.27;;;;;;;;;;5033204;28;20417;-76
2021/09/11 10:48:06;;;;;;;2.90;1.90;;;;;;;;;;5014879;28;20384;-77
2021/09/11 10:50:39;;;;;;;3.53;1.70;;;;;;;;;;5032351;28;20906;-76
2021/09/11 10:53:20;;;;;;;3.57;2.23;;;;;;;;;;5030703;28;20449;-77
2021/09/11 10:55:48;;;;;;;3.67;1.60;;;;;;;;;;5031016;28;20400;-77
2021/09/11 10:58:24;;;;;;;4.20;1.77;;;;;;;;;;5032262;28;20428;-78
2021/09/11 11:00:57;;;;;;;5.67;2.13;;;;;;;;;;5032084;28;20405;-78
2021/09/11 11:03:23;;;;;;;2.27;1.57;;;;;;;;;;5030268;28;20419;-77
2021/09/11 11:06:00;;;;;;;2.57;1.70;;;;;;;;;;5035537;28;20409;-77
2021/09/11 11:08:26;;;;;;;3.80;1.93;;;;;;;;;;5036741;28;20415;-78
2021/09/11 11:10:53;;;;;;;1.50;1.37;;;;;;;;;;5037238;28;20737;-78
2021/09/11 11:13:19;;;;;;;3.57;1.80;;;;;;;;;;5037040;28;20756;-77
2021/09/11 11:15:53;;;;;;;4.30;2.13;;;;;;;;;;5037091;28;20431;-79
2021/09/11 11:18:19;;;;;;;2.60;2.20;;;;;;;;;;5022084;28;20476;-78
2021/09/11 11:20:45;;;;;;;2.83;1.77;;;;;;;;;;5035820;28;20423;-77
2021/09/11 11:23:11;;;;;;;4.40;1.70;;;;;;;;;;5036493;28;20409;-79
2021/09/11 11:25:39;;;;;;;2.67;1.40;;;;;;;;;;5036579;28;20441;-77
2021/09/11 11:28:06;;;;;;;3.00;1.40;;;;;;;;;;5036348;28;20499;-78
2021/09/11 11:30:32;;;;;;;1.70;1.60;;;;;;;;;;5018626;28;20474;-79
2021/09/11 11:32:59;;;;;;;3.40;1.73;;;;;;;;;;5036319;28;20808;-79
2021/09/11 11:35:25;;;;;;;5.83;1.63;;;;;;;;;;5035781;28;20413;-79
2021/09/11 11:37:51;;;;;;;5.47;1.70;;;;;;;;;;5033215;28;20409;-77
2021/09/11 11:40:17;;;;;;;3.03;1.60;;;;;;;;;;5035563;28;20444;-78
2021/09/11 11:42:44;;;;;;;3.17;2.03;;;;;;;;;;5034873;28;20486;-80
2021/09/11 11:45:11;;;;;;;4.80;1.50;;;;;;;;;;5035776;28;20591;-77
2021/09/11 11:47:53;;;;;;;3.33;1.63;;;;;;;;;;5036137;28;20387;-79
2021/09/11 11:50:26;;;;;;;3.27;1.77;;;;;;;;;;5036008;28;20509;-79
2021/09/11 11:52:53;;;;;;;2.83;1.50;;;;;;;;;;5036006;28;20387;-77
2021/09/11 11:55:20;;;;;;;3.27;2.00;;;;;;;;;;5035743;28;20397;-77
2021/09/11 11:57:46;;;;;;;2.93;1.50;;;;;;;;;;5035785;28;20368;-77
2021/09/11 12:00:12;;;;;;;3.00;1.70;;;;;;;;;;5035958;28;20927;-77
2021/09/11 12:02:40;;;;;;;2.13;1.67;;;;;;;;;;5035123;28;20436;-78
2021/09/11 12:05:14;;;;;;;4.57;1.73;;;;;;;;;;5017711;28;20980;-78
2021/09/11 12:07:40;;;;;;;2.67;1.70;;;;;;;;;;5035491;28;20416;-77
2021/09/11 12:10:13;;;;;;;1.97;1.60;;;;;;;;;;5035638;28;20842;-78
2021/09/11 12:12:49;;;;;;;2.40;1.57;;;;;;;;;;5035222;28;20400;-78
2021/09/11 12:15:16;;;;;;;1.70;1.43;;;;;;;;;;5035125;28;20799;-78
2021/09/11 12:17:59;;;;;;;4.03;1.87;;;;;;;;;;5035276;28;20401;-78
2021/09/11 12:20:26;;;;;;;1.93;1.23;;;;;;;;;;5017694;28;20411;-78
2021/09/11 12:23:02;;;;;;;1.90;1.40;;;;;;;;;;5034914;28;20399;-77
2021/09/11 12:25:29;;;;;;;3.70;1.70;;;;;;;;;;5035536;28;20399;-78
2021/09/11 12:27:55;;;;;;;3.43;1.80;;;;;;;;;;5035329;28;20482;-78
2021/09/11 12:30:21;;;;;;;1.70;1.43;;;;;;;;;;5035241;28;20481;-77
2021/09/11 12:32:50;;;;;;;3.03;1.53;;;;;;;;;;5034468;28;20407;-78
2021/09/11 12:35:16;;;;;;;2.10;1.67;;;;;;;;;;5035043;28;20474;-78
2021/09/11 12:37:55;;;;;;;1.43;1.27;;;;;;;;;;5034869;28;20447;-79
2021/09/11 12:40:21;;;;;;;1.67;1.43;;;;;;;;;;5033850;28;20552;-78
2021/09/11 12:42:47;;;;;;;1.73;1.30;;;;;;;;;;5034378;28;20487;-80
2021/09/11 12:45:13;;;;;;;2.27;1.50;;;;;;;;;;5034725;28;20872;-77
2021/09/11 12:47:39;;;;;;;1.77;1.30;;;;;;;;;;5016900;28;20978;-78
2021/09/11 12:50:06;;;;;;;2.80;1.93;;;;;;;;;;5034710;28;20428;-77
2021/09/11 12:52:32;;;;;;;1.30;1.20;;;;;;;;;;5016191;28;20429;-77
2021/09/11 12:54:58;;;;;;;3.10;1.80;;;;;;;;;;5034586;28;21137;-77
2021/09/11 12:57:25;;;;;;;3.80;1.97;;;;;;;;;;5034456;28;20413;-78
2021/09/11 12:59:51;;;;;;;1.80;1.43;;;;;;;;;;5034653;28;20427;-77
2021/09/11 13:02:18;;;;;;;2.13;1.40;;;;;;;;;;5034092;28;20524;-78
2021/09/11 13:04:44;;;;;;;10.03;1.73;;;;;;;;;;5034992;28;20935;-78
2021/09/11 13:07:10;;;;;;;1.63;1.43;;;;;;;;;;5016567;28;20445;-77
2021/09/11 13:09:36;;;;;;;2.87;1.80;;;;;;;;;;5034184;28;20401;-77
2021/09/11 13:12:02;;;;;;;1.47;1.20;;;;;;;;;;5033659;28;20440;-78
2021/09/11 13:14:28;;;;;;;1.60;1.50;;;;;;;;;;5034270;28;20428;-78
2021/09/11 13:16:54;;;;;;;2.60;1.20;;;;;;;;;;5034508;28;20463;-77
2021/09/11 13:19:21;;;;;;;1.90;1.40;;;;;;;;;;5035479;28;20409;-77
2021/09/11 13:21:47;;;;;;;2.77;1.43;;;;;;;;;;5033847;28;20805;-76
2021/09/11 13:24:13;;;;;;;1.47;1.13;;;;;;;;;;5034024;28;20452;-78
2021/09/11 13:26:39;;;;;;;1.90;1.50;;;;;;;;;;5033685;28;20405;-76
2021/09/11 13:29:05;;;;;;;2.67;1.20;;;;;;;;;;5033625;28;20959;-77
2021/09/11 13:31:33;;;;;;;2.20;1.40;;;;;;;;;;5033331;28;20763;-78
2021/09/11 13:33:59;;;;;;;1.87;1.43;;;;;;;;;;5034015;28;20413;-77
2021/09/11 13:36:25;;;;;;;1.40;1.30;;;;;;;;;;5034187;28;20409;-78
2021/09/11 13:38:52;;;;;;;1.77;1.20;;;;;;;;;;5033886;28;20543;-76
2021/09/11 13:41:19;;;;;;;1.90;1.47;;;;;;;;;;5033413;28;20500;-76
2021/09/11 13:43:45;;;;;;;1.10;1.00;;;;;;;;;;5033726;28;20994;-76
2021/09/11 13:46:13;;;;;;;1.43;1.33;;;;;;;;;;5033409;28;20482;-76
2021/09/11 13:48:39;;;;;;;2.03;1.40;;;;;;;;;;5033465;28;20436;-76
2021/09/11 13:51:05;;;;;;;4.53;1.87;;;;;;;;;;5032950;28;20447;-76
2021/09/11 13:53:32;;;;;;;3.37;1.47;;;;;;;;;;5033589;28;20416;-78
2021/09/11 13:55:57;;;;;;;2.07;1.87;;;;;;;;;;5033333;28;20397;-77
2021/09/11 13:58:24;;;;;;;1.27;1.10;;;;;;;;;;5033555;28;20492;-76
2021/09/11 14:00:49;;;;;;;1.50;1.30;;;;;;;;;;5033398;28;20392;-77
2021/09/11 14:03:15;;;;;;;4.43;1.30;;;;;;;;;;5033411;28;20413;-76
2021/09/11 14:05:43;;;;;;;1.70;1.50;;;;;;;;;;5033247;28;20414;-76
2021/09/11 14:08:09;;;;;;;1.90;1.37;;;;;;;;;;5033304;28;20436;-77
2021/09/11 14:10:35;;;;;;;5.23;1.40;;;;;;;;;;5033144;28;20455;-76
2021/09/11 14:13:01;;;;;;;2.37;1.20;;;;;;;;;;5015232;28;20541;-78
2021/09/11 14:15:27;;;;;;;1.60;1.50;;;;;;;;;;5015655;28;20932;-77
2021/09/11 14:17:53;;;;;;;3.33;1.80;;;;;;;;;;5033125;28;20412;-77
2021/09/11 14:20:20;;;;;;;4.00;1.83;;;;;;;;;;5033170;28;20405;-77
2021/09/11 14:22:46;;;;;;;1.80;1.50;;;;;;;;;;5032683;28;20471;-76
2021/09/11 14:25:13;;;;;;;2.33;1.50;;;;;;;;;;5033275;28;20919;-77
2021/09/11 14:27:39;;;;;;;2.33;1.30;;;;;;;;;;5033204;28;20493;-76
2021/09/11 14:30:06;;;;;;;3.00;1.53;;;;;;;;;;5033278;28;20409;-76
2021/09/11 14:32:32;;;;;;;2.33;1.37;;;;;;;;;;5032626;28;20479;-76
2021/09/11 14:34:58;;;;;;;1.77;1.20;;;;;;;;;;5033084;28;20470;-75
2021/09/11 14:37:24;;;;;;;1.40;1.20;;;;;;;;;;5034634;28;20417;-76